Time;durP1;ratioP1;P1;durP2;ratioP2;P2;SDS_P1;SDS_P2;PMS_P1;PMS_P2;Temp;Humidity;BMP_temperature;BMP_pressure;BME280_temperature;BME280_humidity;BME280_pressure;Samples;Min_cycle;Max_cycle;Signal;HPM_P1;HPM_P2
2023/08/03 00:04:43;;;;;;;0.10;0.10;;;;;;;;;;10437412;28;20017;-81
2023/08/03 00:09:46;;;;;;;0.10;0.10;;;;;;;;;;10423394;28;20051;-80
2023/08/03 00:14:46;;;;;;;0.10;0.10;;;;;;;;;;10406254;28;20020;-82
2023/08/03 00:19:47;;;;;;;0.10;0.10;;;;;;;;;;10408675;28;20013;-80
2023/08/03 00:24:48;;;;;;;0.00;0.00;;;;;;;;;;10425837;28;20029;-81
2023/08/03 00:29:49;;;;;;;0.00;0.00;;;;;;;;;;10404909;28;20020;-80
2023/08/03 00:34:49;;;;;;;0.10;0.10;;;;;;;;;;10419335;28;20028;-80
2023/08/03 00:39:49;;;;;;;0.00;0.00;;;;;;;;;;10426698;28;20357;-78
2023/08/03 00:44:49;;;;;;;0.10;0.10;;;;;;;;;;10438495;28;20265;-78
2023/08/03 00:49:49;;;;;;;0.10;0.10;;;;;;;;;;10400575;28;20017;-79
2023/08/03 00:54:50;;;;;;;0.10;0.10;;;;;;;;;;10419935;28;20025;-79
2023/08/03 00:59:50;;;;;;;0.10;0.10;;;;;;;;;;10434861;22;20049;-76
2023/08/03 01:04:50;;;;;;;0.10;0.10;;;;;;;;;;10388224;28;20419;-76
2023/08/03 01:09:51;;;;;;;0.10;0.10;;;;;;;;;;10374388;28;20022;-76
2023/08/03 01:14:51;;;;;;;0.10;0.10;;;;;;;;;;10394400;28;20468;-77
2023/08/03 01:19:51;;;;;;;0.10;0.10;;;;;;;;;;10391877;28;20073;-77
2023/08/03 01:24:52;;;;;;;0.10;0.10;;;;;;;;;;10393834;28;20075;-77
2023/08/03 01:29:52;;;;;;;0.10;0.10;;;;;;;;;;10402743;28;20026;-78
2023/08/03 01:34:52;;;;;;;0.10;0.10;;;;;;;;;;10413595;28;20025;-77
2023/08/03 01:39:52;;;;;;;0.00;0.00;;;;;;;;;;10410005;28;20045;-77
2023/08/03 01:44:52;;;;;;;0.00;0.00;;;;;;;;;;10409483;28;20021;-77
2023/08/03 01:49:52;;;;;;;0.10;0.10;;;;;;;;;;10393850;28;20064;-76
2023/08/03 01:54:53;;;;;;;0.00;0.00;;;;;;;;;;10410772;28;20494;-77
2023/08/03 01:59:53;;;;;;;0.10;0.10;;;;;;;;;;10404295;28;20036;-77
2023/08/03 02:04:53;;;;;;;0.10;0.10;;;;;;;;;;10405171;28;20027;-77
2023/08/03 02:09:53;;;;;;;0.10;0.10;;;;;;;;;;10414361;28;20013;-77
2023/08/03 02:14:54;;;;;;;0.00;0.00;;;;;;;;;;10412046;28;20627;-77
2023/08/03 02:19:54;;;;;;;0.10;0.10;;;;;;;;;;10407850;28;20010;-78
2023/08/03 02:24:54;;;;;;;0.10;0.10;;;;;;;;;;10400114;28;20010;-79
2023/08/03 02:29:55;;;;;;;0.10;0.10;;;;;;;;;;10384617;28;20431;-79
2023/08/03 02:34:55;;;;;;;0.00;0.00;;;;;;;;;;10403511;28;20052;-77
2023/08/03 02:39:55;;;;;;;0.10;0.10;;;;;;;;;;10384765;28;20022;-77
2023/08/03 02:44:55;;;;;;;0.10;0.10;;;;;;;;;;10403902;28;20465;-77
2023/08/03 02:49:55;;;;;;;0.10;0.10;;;;;;;;;;10403841;28;20037;-78
2023/08/03 02:54:55;;;;;;;0.00;0.00;;;;;;;;;;10407823;28;20010;-78
2023/08/03 02:59:56;;;;;;;0.10;0.10;;;;;;;;;;10412846;28;20089;-79
2023/08/03 03:04:56;;;;;;;0.10;0.10;;;;;;;;;;10393494;28;20075;-76
2023/08/03 03:09:56;;;;;;;0.00;0.00;;;;;;;;;;10392831;28;20021;-78
2023/08/03 03:14:56;;;;;;;0.10;0.10;;;;;;;;;;10389543;28;20543;-77
2023/08/03 03:19:57;;;;;;;0.00;0.00;;;;;;;;;;10421758;28;20021;-78
2023/08/03 03:24:57;;;;;;;0.10;0.10;;;;;;;;;;10413142;28;20022;-77
2023/08/03 03:29:57;;;;;;;0.10;0.10;;;;;;;;;;10405199;28;20485;-77
2023/08/03 03:34:57;;;;;;;0.00;0.00;;;;;;;;;;10410522;28;20457;-78
2023/08/03 03:39:57;;;;;;;0.00;0.00;;;;;;;;;;10411792;28;20443;-77
2023/08/03 03:44:57;;;;;;;0.10;0.10;;;;;;;;;;10402792;28;20025;-78
2023/08/03 03:49:58;;;;;;;0.00;0.00;;;;;;;;;;10412556;28;20017;-77
2023/08/03 03:54:58;;;;;;;0.00;0.00;;;;;;;;;;10402091;28;20026;-78
2023/08/03 03:59:58;;;;;;;0.00;0.00;;;;;;;;;;10403905;28;20431;-78
2023/08/03 04:04:58;;;;;;;0.03;0.03;;;;;;;;;;10381652;28;20014;-77
2023/08/03 04:09:58;;;;;;;0.10;0.10;;;;;;;;;;10387053;28;20024;-78
2023/08/03 04:14:59;;;;;;;0.10;0.10;;;;;;;;;;10417792;28;20443;-77
2023/08/03 04:19:59;;;;;;;0.10;0.10;;;;;;;;;;10409409;28;20018;-77
2023/08/03 04:24:59;;;;;;;0.10;0.10;;;;;;;;;;10404439;28;20014;-78
2023/08/03 04:29:59;;;;;;;0.00;0.00;;;;;;;;;;10398430;28;20052;-77
2023/08/03 04:34:59;;;;;;;0.00;0.00;;;;;;;;;;10407209;28;20022;-78
2023/08/03 04:40:00;;;;;;;0.10;0.10;;;;;;;;;;10383244;28;20452;-78
2023/08/03 04:45:00;;;;;;;0.10;0.10;;;;;;;;;;10405822;28;20020;-78
2023/08/03 04:50:00;;;;;;;0.10;0.10;;;;;;;;;;10411145;28;20539;-78
2023/08/03 04:55:00;;;;;;;0.10;0.10;;;;;;;;;;10408279;28;20021;-78
2023/08/03 05:00:01;;;;;;;0.10;0.10;;;;;;;;;;10386936;28;20033;-77
2023/08/03 05:05:01;;;;;;;0.10;0.10;;;;;;;;;;10381798;28;20029;-76
2023/08/03 05:10:01;;;;;;;0.00;0.00;;;;;;;;;;10380786;28;20029;-77
2023/08/03 05:15:01;;;;;;;0.10;0.10;;;;;;;;;;10398599;28;20495;-77
2023/08/03 05:20:01;;;;;;;0.10;0.10;;;;;;;;;;10383696;28;20049;-77
2023/08/03 05:25:02;;;;;;;0.10;0.10;;;;;;;;;;10379786;28;20105;-76
2023/08/03 05:30:03;;;;;;;0.00;0.00;;;;;;;;;;10371246;28;20033;-77
2023/08/03 05:35:03;;;;;;;0.00;0.00;;;;;;;;;;10399640;28;20484;-77
2023/08/03 05:40:03;;;;;;;0.10;0.10;;;;;;;;;;10393759;28;20049;-78
2023/08/03 05:45:10;;;;;;;0.00;0.00;;;;;;;;;;10415127;28;20260;-78
2023/08/03 05:50:13;;;;;;;0.10;0.10;;;;;;;;;;10413965;28;20037;-77
2023/08/03 05:55:14;;;;;;;0.10;0.10;;;;;;;;;;10396017;28;20024;-78
2023/08/03 06:00:21;;;;;;;0.10;0.10;;;;;;;;;;10388587;28;20034;-76
2023/08/03 06:05:39;;;;;;;0.00;0.00;;;;;;;;;;10404894;28;20017;-78
2023/08/03 06:10:39;;;;;;;0.05;0.05;;;;;;;;;;10397867;28;20049;-78
2023/08/03 06:15:43;;;;;;;0.10;0.10;;;;;;;;;;10385307;28;20025;-77
2023/08/03 06:20:47;;;;;;;0.00;0.00;;;;;;;;;;10423070;28;20025;-78
2023/08/03 06:25:49;;;;;;;0.10;0.10;;;;;;;;;;10401731;28;20020;-78
2023/08/03 06:30:50;;;;;;;0.00;0.00;;;;;;;;;;10404498;28;20034;-78
2023/08/03 06:35:54;;;;;;;0.00;0.00;;;;;;;;;;10413327;28;20022;-79
2023/08/03 06:40:55;;;;;;;0.10;0.10;;;;;;;;;;10407967;28;20005;-77
2023/08/03 06:45:55;;;;;;;0.00;0.00;;;;;;;;;;10407209;28;20053;-78
2023/08/03 06:50:55;;;;;;;0.00;0.00;;;;;;;;;;10414955;28;20052;-77
2023/08/03 06:55:55;;;;;;;0.10;0.10;;;;;;;;;;10418537;28;20097;-78
2023/08/03 07:00:56;;;;;;;0.10;0.10;;;;;;;;;;10411356;28;20086;-79
2023/08/03 07:05:56;;;;;;;0.10;0.10;;;;;;;;;;10405382;22;20519;-81
2023/08/03 07:10:57;;;;;;;0.00;0.00;;;;;;;;;;10371084;28;20017;-83
2023/08/03 07:16:04;;;;;;;0.00;0.00;;;;;;;;;;10362599;28;20548;-82
2023/08/03 07:21:05;;;;;;;0.10;0.10;;;;;;;;;;10362817;28;20021;-81
2023/08/03 07:26:15;;;;;;;0.07;0.07;;;;;;;;;;10361691;28;20089;-80
2023/08/03 07:31:15;;;;;;;0.00;0.00;;;;;;;;;;10370235;28;20473;-79
2023/08/03 07:36:16;;;;;;;0.00;0.00;;;;;;;;;;10380476;28;20105;-79
2023/08/03 07:41:17;;;;;;;0.00;0.00;;;;;;;;;;10365337;28;20018;-79
2023/08/03 07:46:17;;;;;;;0.00;0.00;;;;;;;;;;10360759;28;20018;-80
2023/08/03 07:51:17;;;;;;;0.00;0.00;;;;;;;;;;10363090;28;20026;-81
2023/08/03 07:56:18;;;;;;;0.10;0.10;;;;;;;;;;10375365;28;20018;-81
2023/08/03 08:01:19;;;;;;;0.10;0.10;;;;;;;;;;10368744;28;20050;-79
2023/08/03 08:06:20;;;;;;;0.00;0.00;;;;;;;;;;10377379;28;20139;-82
2023/08/03 08:11:20;;;;;;;0.10;0.10;;;;;;;;;;10368145;28;20480;-82
2023/08/03 08:16:20;;;;;;;0.00;0.00;;;;;;;;;;10365475;28;20025;-81
2023/08/03 08:21:20;;;;;;;0.00;0.00;;;;;;;;;;10360302;28;20036;-81
2023/08/03 08:26:21;;;;;;;0.00;0.00;;;;;;;;;;10362846;28;20487;-81
2023/08/03 08:31:21;;;;;;;0.00;0.00;;;;;;;;;;10357695;28;20053;-81
2023/08/03 08:36:21;;;;;;;0.00;0.00;;;;;;;;;;10377692;28;20518;-82
2023/08/03 08:41:21;;;;;;;0.00;0.00;;;;;;;;;;10373706;28;20078;-82
2023/08/03 08:46:21;;;;;;;0.00;0.00;;;;;;;;;;10371767;28;20076;-82
2023/08/03 08:51:22;;;;;;;0.00;0.00;;;;;;;;;;10364229;28;20052;-79
2023/08/03 08:56:22;;;;;;;0.00;0.00;;;;;;;;;;10370935;28;20101;-81
2023/08/03 09:01:22;;;;;;;0.00;0.00;;;;;;;;;;10368792;28;20013;-81
2023/08/03 09:06:22;;;;;;;0.00;0.00;;;;;;;;;;10369353;28;20030;-82
2023/08/03 09:11:36;;;;;;;0.00;0.00;;;;;;;;;;10352517;28;20018;-82
2023/08/03 09:16:37;;;;;;;0.10;0.10;;;;;;;;;;10374455;28;20021;-79
2023/08/03 09:21:37;;;;;;;0.10;0.10;;;;;;;;;;10371817;28;20485;-81
2023/08/03 09:26:40;;;;;;;0.00;0.00;;;;;;;;;;10372566;28;20064;-81
2023/08/03 09:31:41;;;;;;;0.00;0.00;;;;;;;;;;10348183;28;20017;-82
2023/08/03 09:36:48;;;;;;;0.00;0.00;;;;;;;;;;10344012;28;20473;-82
2023/08/03 09:41:49;;;;;;;0.00;0.00;;;;;;;;;;10358059;28;20021;-83
2023/08/03 09:46:49;;;;;;;0.00;0.00;;;;;;;;;;10364445;28;20014;-82
2023/08/03 09:51:52;;;;;;;0.00;0.00;;;;;;;;;;10360054;28;20018;-82
2023/08/03 09:56:54;;;;;;;0.00;0.00;;;;;;;;;;10362255;28;20101;-81
2023/08/03 10:01:57;;;;;;;0.00;0.00;;;;;;;;;;10371026;28;20100;-81
2023/08/03 10:07:01;;;;;;;0.00;0.00;;;;;;;;;;10357201;28;20061;-81
2023/08/03 10:12:03;;;;;;;0.00;0.00;;;;;;;;;;10374428;28;20570;-81
2023/08/03 10:17:05;;;;;;;0.00;0.00;;;;;;;;;;10378463;28;20038;-81
2023/08/03 10:22:06;;;;;;;0.00;0.00;;;;;;;;;;10378042;28;20028;-82
2023/08/03 10:27:19;;;;;;;0.00;0.00;;;;;;;;;;10360493;28;20101;-82
2023/08/03 10:32:21;;;;;;;0.10;0.10;;;;;;;;;;10358970;28;20428;-82
2023/08/03 10:37:21;;;;;;;0.00;0.00;;;;;;;;;;10382650;28;20014;-81
2023/08/03 10:42:23;;;;;;;0.00;0.00;;;;;;;;;;10381216;28;20053;-82
2023/08/03 10:47:24;;;;;;;0.00;0.00;;;;;;;;;;10357167;28;20480;-78
2023/08/03 10:52:27;;;;;;;0.00;0.00;;;;;;;;;;10354096;28;20025;-81
2023/08/03 10:57:29;;;;;;;0.10;0.10;;;;;;;;;;10378034;28;20045;-79
2023/08/03 11:02:30;;;;;;;0.00;0.00;;;;;;;;;;10349165;28;20030;-80
2023/08/03 11:07:38;;;;;;;0.00;0.00;;;;;;;;;;10356968;28;20026;-83
2023/08/03 11:12:42;;;;;;;0.00;0.00;;;;;;;;;;10354115;28;20034;-81
2023/08/03 11:17:45;;;;;;;0.00;0.00;;;;;;;;;;10372183;28;20093;-80
2023/08/03 11:22:46;;;;;;;0.00;0.00;;;;;;;;;;10356368;28;20512;-81
2023/08/03 11:27:46;;;;;;;0.10;0.10;;;;;;;;;;10356836;28;20053;-80
2023/08/03 11:32:47;;;;;;;0.00;0.00;;;;;;;;;;10370992;28;20473;-79
2023/08/03 11:37:47;;;;;;;0.00;0.00;;;;;;;;;;10365535;28;20029;-82
2023/08/03 11:42:47;;;;;;;0.00;0.00;;;;;;;;;;10376558;28;20022;-82
2023/08/03 11:47:48;;;;;;;0.00;0.00;;;;;;;;;;10380285;28;20554;-82
2023/08/03 11:52:48;;;;;;;0.00;0.00;;;;;;;;;;10384645;28;20030;-79
2023/08/03 11:58:07;;;;;;;0.00;0.00;;;;;;;;;;10393404;28;20053;-83
2023/08/03 12:03:08;;;;;;;0.00;0.00;;;;;;;;;;10366373;28;20029;-82
2023/08/03 12:08:08;;;;;;;0.00;0.00;;;;;;;;;;10387587;28;20034;-82
2023/08/03 12:13:09;;;;;;;0.00;0.00;;;;;;;;;;10394579;28;20049;-82
2023/08/03 12:18:09;;;;;;;0.00;0.00;;;;;;;;;;10387131;28;20277;-82
2023/08/03 12:23:09;;;;;;;0.10;0.10;;;;;;;;;;10389516;28;20023;-82
2023/08/03 12:28:09;;;;;;;0.00;0.00;;;;;;;;;;10376802;28;20162;-82
2023/08/03 12:33:10;;;;;;;0.00;0.00;;;;;;;;;;10372656;28;20053;-82
2023/08/03 12:38:10;;;;;;;0.00;0.00;;;;;;;;;;10359343;28;20018;-80
2023/08/03 12:43:10;;;;;;;0.00;0.00;;;;;;;;;;10354271;28;20261;-79
2023/08/03 12:48:10;;;;;;;0.00;0.00;;;;;;;;;;10359532;28;20064;-80
2023/08/03 12:53:10;;;;;;;0.10;0.10;;;;;;;;;;10350115;28;20075;-80
2023/08/03 12:58:11;;;;;;;0.00;0.00;;;;;;;;;;10350125;28;20022;-79
2023/08/03 13:03:11;;;;;;;0.00;0.00;;;;;;;;;;10346831;28;20033;-80
2023/08/03 13:08:12;;;;;;;0.10;0.10;;;;;;;;;;10443049;23;20072;-78
2023/08/03 13:13:12;;;;;;;0.00;0.00;;;;;;;;;;10429666;28;20096;-78
2023/08/03 13:18:13;;;;;;;0.00;0.00;;;;;;;;;;10404670;28;20090;-77
2023/08/03 13:23:13;;;;;;;0.00;0.00;;;;;;;;;;10418648;28;20051;-77
2023/08/03 13:28:13;;;;;;;0.00;0.00;;;;;;;;;;10400745;28;20022;-78
2023/08/03 13:33:13;;;;;;;0.00;0.00;;;;;;;;;;10397971;28;20057;-80
2023/08/03 13:38:14;;;;;;;0.00;0.00;;;;;;;;;;10400119;28;20022;-76
2023/08/03 13:43:14;;;;;;;0.00;0.00;;;;;;;;;;10418552;28;20044;-78
2023/08/03 13:48:14;;;;;;;0.00;0.00;;;;;;;;;;10420491;28;20022;-78
2023/08/03 13:53:14;;;;;;;0.00;0.00;;;;;;;;;;10423665;28;20086;-77
2023/08/03 13:58:16;;;;;;;0.00;0.00;;;;;;;;;;10402320;28;20046;-76
2023/08/03 14:03:16;;;;;;;0.10;0.10;;;;;;;;;;10401125;28;20016;-78
2023/08/03 14:08:16;;;;;;;0.00;0.00;;;;;;;;;;10423655;28;20032;-77
2023/08/03 14:13:16;;;;;;;0.00;0.00;;;;;;;;;;10416266;28;20032;-78
2023/08/03 14:18:16;;;;;;;0.00;0.00;;;;;;;;;;10440687;28;20116;-77
2023/08/03 14:23:17;;;;;;;0.10;0.10;;;;;;;;;;10406569;28;20488;-78
2023/08/03 14:28:17;;;;;;;0.00;0.00;;;;;;;;;;10405734;28;20462;-77
2023/08/03 14:33:17;;;;;;;0.00;0.00;;;;;;;;;;10433766;28;20014;-77
2023/08/03 14:38:17;;;;;;;0.00;0.00;;;;;;;;;;10433787;28;20028;-77
2023/08/03 14:43:17;;;;;;;0.10;0.10;;;;;;;;;;10455227;28;20020;-77
2023/08/03 14:48:18;;;;;;;0.00;0.00;;;;;;;;;;10433253;28;20456;-77
2023/08/03 14:53:18;;;;;;;0.00;0.00;;;;;;;;;;10408290;28;20027;-77
2023/08/03 14:58:19;;;;;;;0.00;0.00;;;;;;;;;;10406442;28;20524;-77
2023/08/03 15:03:19;;;;;;;0.00;0.00;;;;;;;;;;10392251;28;20064;-77
2023/08/03 15:08:19;;;;;;;0.10;0.10;;;;;;;;;;10409396;28;20116;-77
2023/08/03 15:13:19;;;;;;;0.00;0.00;;;;;;;;;;10401787;28;20045;-77
2023/08/03 15:18:20;;;;;;;0.03;0.03;;;;;;;;;;10423396;28;20032;-77
2023/08/03 15:23:20;;;;;;;0.00;0.00;;;;;;;;;;10404524;28;20018;-77
2023/08/03 15:28:20;;;;;;;0.00;0.00;;;;;;;;;;10387379;28;20029;-75
2023/08/03 15:33:20;;;;;;;0.00;0.00;;;;;;;;;;10380061;28;20038;-76
2023/08/03 15:38:20;;;;;;;0.00;0.00;;;;;;;;;;10410373;28;20399;-76
2023/08/03 15:43:21;;;;;;;0.10;0.10;;;;;;;;;;10385248;28;20018;-76
2023/08/03 15:48:21;;;;;;;0.00;0.00;;;;;;;;;;10409914;28;20071;-75
2023/08/03 15:53:22;;;;;;;0.00;0.00;;;;;;;;;;10416345;28;20021;-76
2023/08/03 15:58:22;;;;;;;0.03;0.03;;;;;;;;;;10416095;28;20079;-76
2023/08/03 16:03:23;;;;;;;0.00;0.00;;;;;;;;;;10416586;28;20013;-76
2023/08/03 16:08:23;;;;;;;0.00;0.00;;;;;;;;;;10433322;28;20078;-76
2023/08/03 16:13:23;;;;;;;0.00;0.00;;;;;;;;;;10456916;28;20486;-76
2023/08/03 16:18:23;;;;;;;0.00;0.00;;;;;;;;;;10456601;28;20028;-76
2023/08/03 16:23:23;;;;;;;0.00;0.00;;;;;;;;;;10456388;28;20021;-76
2023/08/03 16:28:24;;;;;;;0.00;0.00;;;;;;;;;;10456136;28;20044;-76
2023/08/03 16:33:24;;;;;;;0.00;0.00;;;;;;;;;;10456002;28;20021;-75
2023/08/03 16:38:25;;;;;;;0.00;0.00;;;;;;;;;;10443080;28;20017;-76
2023/08/03 16:43:25;;;;;;;0.00;0.00;;;;;;;;;;10414718;28;20017;-76
2023/08/03 16:48:26;;;;;;;0.00;0.00;;;;;;;;;;10414444;28;20053;-75
2023/08/03 16:53:26;;;;;;;0.00;0.00;;;;;;;;;;10414083;28;20017;-75
2023/08/03 16:58:26;;;;;;;0.00;0.00;;;;;;;;;;10413857;28;20159;-74
2023/08/03 17:03:26;;;;;;;0.00;0.00;;;;;;;;;;10413726;28;20009;-74
2023/08/03 17:08:27;;;;;;;0.00;0.00;;;;;;;;;;10413129;28;20036;-75
2023/08/03 17:13:27;;;;;;;0.00;0.00;;;;;;;;;;10413398;28;20028;-75
2023/08/03 17:18:27;;;;;;;0.00;0.00;;;;;;;;;;10412709;28;20025;-75
2023/08/03 17:23:27;;;;;;;0.10;0.10;;;;;;;;;;10412622;28;20037;-75
2023/08/03 17:28:28;;;;;;;0.08;0.08;;;;;;;;;;10412573;28;20200;-75
2023/08/03 17:33:29;;;;;;;0.00;0.00;;;;;;;;;;10412385;28;20039;-75
2023/08/03 17:38:29;;;;;;;0.00;0.00;;;;;;;;;;10419648;28;20187;-74
2023/08/03 17:43:31;;;;;;;0.00;0.00;;;;;;;;;;10411820;28;20048;-74
2023/08/03 17:48:32;;;;;;;0.00;0.00;;;;;;;;;;10397707;28;20033;-74
2023/08/03 17:53:32;;;;;;;0.00;0.00;;;;;;;;;;10371175;28;20378;-74
2023/08/03 17:58:32;;;;;;;0.10;0.10;;;;;;;;;;10397346;28;20022;-74
2023/08/03 18:03:32;;;;;;;0.00;0.00;;;;;;;;;;10388093;28;20044;-74
2023/08/03 18:08:32;;;;;;;0.00;0.00;;;;;;;;;;10417139;28;20033;-74
2023/08/03 18:13:33;;;;;;;0.00;0.00;;;;;;;;;;10405232;28;20114;-74
2023/08/03 18:18:33;;;;;;;0.00;0.00;;;;;;;;;;10369932;28;20084;-76
2023/08/03 18:23:34;;;;;;;0.00;0.00;;;;;;;;;;10387738;28;20519;-74
2023/08/03 18:28:35;;;;;;;0.00;0.00;;;;;;;;;;10410487;28;20532;-76
2023/08/03 18:33:36;;;;;;;0.10;0.10;;;;;;;;;;10410255;28;20021;-76
2023/08/03 18:38:36;;;;;;;0.00;0.00;;;;;;;;;;10428497;28;20396;-75
2023/08/03 18:43:38;;;;;;;0.00;0.00;;;;;;;;;;10402044;28;20064;-77
2023/08/03 18:48:38;;;;;;;0.00;0.00;;;;;;;;;;10404997;28;20076;-76
2023/08/03 18:53:39;;;;;;;0.10;0.10;;;;;;;;;;10391859;28;20071;-76
2023/08/03 18:58:40;;;;;;;0.05;0.05;;;;;;;;;;10409702;28;20020;-75
2023/08/03 19:03:41;;;;;;;0.00;0.00;;;;;;;;;;10392144;28;20017;-75
2023/08/03 19:08:42;;;;;;;0.00;0.00;;;;;;;;;;10427584;28;20032;-76
2023/08/03 19:13:43;;;;;;;0.00;0.00;;;;;;;;;;10421854;28;20017;-76
2023/08/03 19:18:43;;;;;;;0.00;0.00;;;;;;;;;;10409428;28;20034;-76
2023/08/03 19:23:44;;;;;;;0.00;0.00;;;;;;;;;;10409772;28;20018;-76
2023/08/03 19:28:45;;;;;;;0.00;0.00;;;;;;;;;;10413532;22;20052;-79
2023/08/03 19:33:45;;;;;;;0.00;0.00;;;;;;;;;;10384321;28;20507;-79
2023/08/03 19:38:47;;;;;;;0.00;0.00;;;;;;;;;;10366237;28;20026;-79
2023/08/03 19:43:48;;;;;;;0.05;0.05;;;;;;;;;;10357573;28;20468;-79
2023/08/03 19:48:48;;;;;;;0.10;0.10;;;;;;;;;;10354668;28;20080;-79
2023/08/03 19:53:48;;;;;;;0.00;0.00;;;;;;;;;;10361453;28;20057;-79
2023/08/03 19:58:48;;;;;;;0.10;0.10;;;;;;;;;;10359852;28;20481;-80
2023/08/03 20:03:48;;;;;;;0.03;0.03;;;;;;;;;;10364696;28;20026;-79
2023/08/03 20:08:51;;;;;;;0.00;0.00;;;;;;;;;;10363194;28;20620;-78
2023/08/03 20:13:51;;;;;;;0.10;0.10;;;;;;;;;;10358296;28;20037;-79
2023/08/03 20:18:51;;;;;;;0.10;0.10;;;;;;;;;;10362323;28;20355;-78
2023/08/03 20:23:52;;;;;;;0.10;0.10;;;;;;;;;;10359013;28;20030;-79
2023/08/03 20:28:52;;;;;;;0.00;0.00;;;;;;;;;;10367480;28;20033;-79
2023/08/03 20:33:52;;;;;;;0.00;0.00;;;;;;;;;;10362930;28;20022;-73
2023/08/03 20:38:52;;;;;;;0.00;0.00;;;;;;;;;;10359881;28;20476;-66
2023/08/03 20:43:52;;;;;;;0.00;0.00;;;;;;;;;;10360982;28;20058;-66
2023/08/03 20:48:53;;;;;;;0.10;0.10;;;;;;;;;;10349605;28;20432;-65
2023/08/03 20:53:53;;;;;;;0.10;0.10;;;;;;;;;;10354353;28;20112;-65
2023/08/03 20:58:53;;;;;;;0.10;0.10;;;;;;;;;;10350312;28;20022;-65
2023/08/03 21:03:53;;;;;;;0.10;0.10;;;;;;;;;;10349880;28;20093;-65
2023/08/03 21:08:53;;;;;;;0.10;0.10;;;;;;;;;;10350087;28;20026;-65
2023/08/03 21:13:54;;;;;;;0.10;0.10;;;;;;;;;;10347879;28;20031;-65
2023/08/03 21:18:54;;;;;;;0.00;0.00;;;;;;;;;;10346436;28;20022;-65
2023/08/03 21:23:54;;;;;;;0.10;0.10;;;;;;;;;;10347750;28;20042;-65
2023/08/03 21:28:54;;;;;;;0.10;0.10;;;;;;;;;;10345856;28;20565;-65
2023/08/03 21:33:55;;;;;;;0.00;0.00;;;;;;;;;;10356029;28;20025;-65
2023/08/03 21:38:55;;;;;;;0.10;0.10;;;;;;;;;;10349924;28;20362;-65
2023/08/03 21:43:55;;;;;;;0.10;0.10;;;;;;;;;;10344516;28;20301;-65
2023/08/03 21:48:55;;;;;;;0.10;0.10;;;;;;;;;;10344128;28;20477;-65
2023/08/03 21:53:56;;;;;;;0.10;0.10;;;;;;;;;;10347638;28;20018;-65
2023/08/03 21:58:56;;;;;;;0.10;0.10;;;;;;;;;;10343674;28;20033;-65
2023/08/03 22:03:56;;;;;;;0.10;0.10;;;;;;;;;;10343795;28;20023;-64
2023/08/03 22:08:56;;;;;;;0.10;0.10;;;;;;;;;;10347143;28;20018;-64
2023/08/03 22:13:56;;;;;;;0.10;0.10;;;;;;;;;;10343200;28;20492;-66
2023/08/03 22:18:57;;;;;;;0.10;0.10;;;;;;;;;;10347439;28;20363;-66
2023/08/03 22:23:57;;;;;;;0.10;0.10;;;;;;;;;;10344480;28;20373;-66
2023/08/03 22:28:57;;;;;;;0.10;0.10;;;;;;;;;;10341135;28;20045;-64
2023/08/03 22:33:57;;;;;;;0.00;0.00;;;;;;;;;;10340937;28;20023;-64
2023/08/03 22:38:57;;;;;;;0.00;0.00;;;;;;;;;;10335316;28;20018;-65
2023/08/03 22:43:58;;;;;;;0.00;0.00;;;;;;;;;;10337863;28;20417;-65
2023/08/03 22:48:58;;;;;;;0.10;0.10;;;;;;;;;;10339466;28;20029;-65
2023/08/03 22:53:58;;;;;;;0.00;0.00;;;;;;;;;;10350135;28;20072;-65
2023/08/03 22:58:58;;;;;;;0.10;0.10;;;;;;;;;;10352209;28;20048;-65
2023/08/03 23:03:59;;;;;;;0.00;0.00;;;;;;;;;;10354992;28;20113;-65
2023/08/03 23:08:59;;;;;;;0.00;0.00;;;;;;;;;;10349391;28;20026;-65
2023/08/03 23:14:00;;;;;;;0.10;0.10;;;;;;;;;;10350606;28;20488;-65
2023/08/03 23:19:00;;;;;;;0.10;0.10;;;;;;;;;;10350703;28;20315;-65
2023/08/03 23:24:00;;;;;;;0.10;0.10;;;;;;;;;;10349436;28;20153;-65
2023/08/03 23:29:00;;;;;;;0.10;0.10;;;;;;;;;;10349470;28;20022;-65
2023/08/03 23:34:00;;;;;;;0.00;0.00;;;;;;;;;;10352197;28;20026;-65
2023/08/03 23:39:01;;;;;;;0.10;0.10;;;;;;;;;;10354631;28;20022;-65
2023/08/03 23:44:01;;;;;;;0.03;0.03;;;;;;;;;;10360093;28;20465;-65
2023/08/03 23:49:01;;;;;;;0.00;0.00;;;;;;;;;;10358415;28;20389;-65
2023/08/03 23:54:01;;;;;;;0.10;0.10;;;;;;;;;;10355941;28;20018;-65
2023/08/03 23:59:01;;;;;;;0.03;0.03;;;;;;;;;;10354316;28;20029;-65
